sensor_id;sensor_type;location;lat;lon;timestamp;temperature;humidity
15286;DHT22;7744;52.172;10.668;2023-02-28T00:00:06;-1.30;99.90
15286;DHT22;7744;52.172;10.668;2023-02-28T00:02:38;-1.20;99.90
15286;DHT22;7744;52.172;10.668;2023-02-28T00:05:05;-1.10;99.90
15286;DHT22;7744;52.172;10.668;2023-02-28T00:07:31;-1.10;99.90
15286;DHT22;7744;52.172;10.668;2023-02-28T00:09:57;-1.30;99.90
15286;DHT22;7744;52.172;10.668;2023-02-28T00:12:22;-1.40;99.90
15286;DHT22;7744;52.172;10.668;2023-02-28T00:14:48;-1.60;99.90
15286;DHT22;7744;52.172;10.668;2023-02-28T00:17:14;-1.80;99.90
15286;DHT22;7744;52.172;10.668;2023-02-28T00:19:40;-1.70;99.90
15286;DHT22;7744;52.172;10.668;2023-02-28T00:22:05;-1.50;99.90
15286;DHT22;7744;52.172;10.668;2023-02-28T00:24:31;-1.40;99.90
15286;DHT22;7744;52.172;10.668;2023-02-28T00:26:56;-1.30;99.90
15286;DHT22;7744;52.172;10.668;2023-02-28T00:29:22;-1.20;99.90
15286;DHT22;7744;52.172;10.668;2023-02-28T00:31:47;-1.20;99.90
15286;DHT22;7744;52.172;10.668;2023-02-28T00:34:13;-1.10;99.90
15286;DHT22;7744;52.172;10.668;2023-02-28T00:36:38;-1.00;99.90
15286;DHT22;7744;52.172;10.668;2023-02-28T00:39:04;-1.10;99.90
15286;DHT22;7744;52.172;10.668;2023-02-28T00:41:29;-1.00;99.90
15286;DHT22;7744;52.172;10.668;2023-02-28T00:43:55;-1.00;99.90
15286;DHT22;7744;52.172;10.668;2023-02-28T00:46:20;-1.00;99.90
15286;DHT22;7744;52.172;10.668;2023-02-28T00:48:46;-0.90;99.90
15286;DHT22;7744;52.172;10.668;2023-02-28T00:51:12;-0.80;99.90
15286;DHT22;7744;52.172;10.668;2023-02-28T00:53:37;-0.80;99.90
15286;DHT22;7744;52.172;10.668;2023-02-28T00:56:03;-0.80;86.90
15286;DHT22;7744;52.172;10.668;2023-02-28T00:58:29;-0.80;97.80
15286;DHT22;7744;52.172;10.668;2023-02-28T01:00:55;-0.80;81.80
15286;DHT22;7744;52.172;10.668;2023-02-28T01:03:21;-0.80;48.60
15286;DHT22;7744;52.172;10.668;2023-02-28T01:05:47;-0.90;97.60
15286;DHT22;7744;52.172;10.668;2023-02-28T01:08:14;-0.80;99.70
15286;DHT22;7744;52.172;10.668;2023-02-28T01:10:40;-1.00;66.70
15286;DHT22;7744;52.172;10.668;2023-02-28T01:13:06;-1.20;21.20
15286;DHT22;7744;52.172;10.668;2023-02-28T01:15:31;-1.30;23.60
15286;DHT22;7744;52.172;10.668;2023-02-28T01:17:57;-1.30;1.00
15286;DHT22;7744;52.172;10.668;2023-02-28T01:20:23;-1.20;1.00
15286;DHT22;7744;52.172;10.668;2023-02-28T01:22:49;-1.10;1.00
15286;DHT22;7744;52.172;10.668;2023-02-28T01:25:15;-0.90;4.40
15286;DHT22;7744;52.172;10.668;2023-02-28T01:27:40;0.70;1.00
15286;DHT22;7744;52.172;10.668;2023-02-28T01:30:07;-0.80;1.00
15286;DHT22;7744;52.172;10.668;2023-02-28T01:32:34;-0.70;1.00
15286;DHT22;7744;52.172;10.668;2023-02-28T01:34:59;-0.80;1.00
15286;DHT22;7744;52.172;10.668;2023-02-28T01:37:25;-0.80;1.00
15286;DHT22;7744;52.172;10.668;2023-02-28T01:39:50;-0.70;1.30
15286;DHT22;7744;52.172;10.668;2023-02-28T01:42:16;-0.60;9.90
15286;DHT22;7744;52.172;10.668;2023-02-28T01:45:02;-0.60;6.50
15286;DHT22;7744;52.172;10.668;2023-02-28T01:47:41;-0.60;1.00
15286;DHT22;7744;52.172;10.668;2023-02-28T01:50:13;-0.50;1.90
15286;DHT22;7744;52.172;10.668;2023-02-28T01:52:40;-0.50;8.90
15286;DHT22;7744;52.172;10.668;2023-02-28T01:55:07;-0.50;5.80
15286;DHT22;7744;52.172;10.668;2023-02-28T01:57:36;-0.70;1.00
15286;DHT22;7744;52.172;10.668;2023-02-28T02:00:09;-0.60;1.00
15286;DHT22;7744;52.172;10.668;2023-02-28T02:02:36;-0.70;2.60
15286;DHT22;7744;52.172;10.668;2023-02-28T02:05:11;-0.70;1.60
15286;DHT22;7744;52.172;10.668;2023-02-28T02:10:17;-0.70;99.90
15286;DHT22;7744;52.172;10.668;2023-02-28T02:13:08;-0.70;7.50
15286;DHT22;7744;52.172;10.668;2023-02-28T02:15:42;-0.90;1.00
15286;DHT22;7744;52.172;10.668;2023-02-28T02:18:32;-0.90;8.10
15286;DHT22;7744;52.172;10.668;2023-02-28T02:21:17;-1.10;1.00
15286;DHT22;7744;52.172;10.668;2023-02-28T02:24:33;-1.10;26.20
15286;DHT22;7744;52.172;10.668;2023-02-28T02:27:11;-1.00;47.50
15286;DHT22;7744;52.172;10.668;2023-02-28T02:35:29;-1.00;76.70
15286;DHT22;7744;52.172;10.668;2023-02-28T02:38:06;-1.00;56.90
15286;DHT22;7744;52.172;10.668;2023-02-28T02:46:43;-0.70;11.10
15286;DHT22;7744;52.172;10.668;2023-02-28T02:49:15;-0.80;1.00
15286;DHT22;7744;52.172;10.668;2023-02-28T02:51:42;-0.80;8.10
15286;DHT22;7744;52.172;10.668;2023-02-28T02:54:22;-0.80;15.20
15286;DHT22;7744;52.172;10.668;2023-02-28T02:56:49;-0.70;34.10
15286;DHT22;7744;52.172;10.668;2023-02-28T02:59:19;-0.60;30.50
15286;DHT22;7744;52.172;10.668;2023-02-28T03:01:52;-0.50;28.60
15286;DHT22;7744;52.172;10.668;2023-02-28T03:04:23;-0.40;22.40
15286;DHT22;7744;52.172;10.668;2023-02-28T03:06:51;-0.50;1.00
15286;DHT22;7744;52.172;10.668;2023-02-28T03:09:24;-0.50;1.00
15286;DHT22;7744;52.172;10.668;2023-02-28T03:22:45;-0.40;1.00
15286;DHT22;7744;52.172;10.668;2023-02-28T03:25:38;-0.30;1.00
15286;DHT22;7744;52.172;10.668;2023-02-28T03:28:16;-0.40;14.10
15286;DHT22;7744;52.172;10.668;2023-02-28T03:30:54;-0.40;20.30
15286;DHT22;7744;52.172;10.668;2023-02-28T03:33:31;-0.40;24.40
15286;DHT22;7744;52.172;10.668;2023-02-28T03:36:34;-0.40;25.70
15286;DHT22;7744;52.172;10.668;2023-02-28T03:38:59;-0.40;29.60
15286;DHT22;7744;52.172;10.668;2023-02-28T03:41:35;-0.40;21.70
15286;DHT22;7744;52.172;10.668;2023-02-28T03:44:07;-0.30;16.80
15286;DHT22;7744;52.172;10.668;2023-02-28T03:46:37;-0.40;14.70
15286;DHT22;7744;52.172;10.668;2023-02-28T03:49:16;-0.40;13.30
15286;DHT22;7744;52.172;10.668;2023-02-28T03:51:43;-0.40;15.70
15286;DHT22;7744;52.172;10.668;2023-02-28T03:54:29;-0.40;23.20
15286;DHT22;7744;52.172;10.668;2023-02-28T03:57:02;-0.40;31.20
15286;DHT22;7744;52.172;10.668;2023-02-28T03:59:37;-0.40;24.10
15286;DHT22;7744;52.172;10.668;2023-02-28T04:02:04;-0.50;12.00
15286;DHT22;7744;52.172;10.668;2023-02-28T04:04:29;-0.70;1.00
15286;DHT22;7744;52.172;10.668;2023-02-28T04:07:07;-0.70;20.00
15286;DHT22;7744;52.172;10.668;2023-02-28T04:09:34;-0.70;43.20
15286;DHT22;7744;52.172;10.668;2023-02-28T04:11:59;-0.70;44.50
15286;DHT22;7744;52.172;10.668;2023-02-28T04:14:25;-0.60;28.90
15286;DHT22;7744;52.172;10.668;2023-02-28T04:16:51;-0.50;14.10
15286;DHT22;7744;52.172;10.668;2023-02-28T04:19:17;-0.40;6.70
15286;DHT22;7744;52.172;10.668;2023-02-28T04:21:46;-0.40;3.20
15286;DHT22;7744;52.172;10.668;2023-02-28T04:24:17;-0.40;1.40
15286;DHT22;7744;52.172;10.668;2023-02-28T04:26:45;-0.30;8.40
15286;DHT22;7744;52.172;10.668;2023-02-28T04:29:13;-0.30;3.10
15286;DHT22;7744;52.172;10.668;2023-02-28T04:31:39;-0.30;1.00
15286;DHT22;7744;52.172;10.668;2023-02-28T04:34:05;-0.30;1.00
15286;DHT22;7744;52.172;10.668;2023-02-28T04:36:31;-0.30;1.00
15286;DHT22;7744;52.172;10.668;2023-02-28T04:38:56;-0.30;1.00
15286;DHT22;7744;52.172;10.668;2023-02-28T04:41:23;-0.30;1.00
15286;DHT22;7744;52.172;10.668;2023-02-28T04:43:50;-0.30;5.30
15286;DHT22;7744;52.172;10.668;2023-02-28T04:46:16;-0.30;5.90
15286;DHT22;7744;52.172;10.668;2023-02-28T04:48:43;-0.30;3.00
15286;DHT22;7744;52.172;10.668;2023-02-28T04:51:12;-0.30;1.30
15286;DHT22;7744;52.172;10.668;2023-02-28T04:53:39;-0.30;1.00
15286;DHT22;7744;52.172;10.668;2023-02-28T04:56:06;-0.20;1.00
15286;DHT22;7744;52.172;10.668;2023-02-28T04:58:32;-0.20;1.00
15286;DHT22;7744;52.172;10.668;2023-02-28T05:01:06;-0.20;1.00
15286;DHT22;7744;52.172;10.668;2023-02-28T05:03:38;-0.20;1.00
15286;DHT22;7744;52.172;10.668;2023-02-28T05:06:06;-0.20;1.00
15286;DHT22;7744;52.172;10.668;2023-02-28T05:08:32;-0.20;1.00
15286;DHT22;7744;52.172;10.668;2023-02-28T05:10:57;-0.20;1.10
15286;DHT22;7744;52.172;10.668;2023-02-28T05:13:23;-0.20;1.00
15286;DHT22;7744;52.172;10.668;2023-02-28T05:15:49;-0.30;1.00
15286;DHT22;7744;52.172;10.668;2023-02-28T05:18:14;-0.30;1.00
15286;DHT22;7744;52.172;10.668;2023-02-28T05:20:40;-0.30;3.20
15286;DHT22;7744;52.172;10.668;2023-02-28T05:23:05;-0.40;1.00
15286;DHT22;7744;52.172;10.668;2023-02-28T05:25:31;-0.30;1.00
15286;DHT22;7744;52.172;10.668;2023-02-28T05:27:56;-0.30;1.00
15286;DHT22;7744;52.172;10.668;2023-02-28T05:30:22;-0.20;3.60
15286;DHT22;7744;52.172;10.668;2023-02-28T05:32:51;-0.20;1.00
15286;DHT22;7744;52.172;10.668;2023-02-28T05:35:16;-0.20;1.00
15286;DHT22;7744;52.172;10.668;2023-02-28T05:37:42;-0.10;2.30
15286;DHT22;7744;52.172;10.668;2023-02-28T05:40:08;-0.10;1.00
15286;DHT22;7744;52.172;10.668;2023-02-28T05:42:37;-0.10;1.00
15286;DHT22;7744;52.172;10.668;2023-02-28T05:45:03;-0.10;1.00
15286;DHT22;7744;52.172;10.668;2023-02-28T05:47:29;-0.10;1.00
15286;DHT22;7744;52.172;10.668;2023-02-28T05:49:55;-0.10;1.00
15286;DHT22;7744;52.172;10.668;2023-02-28T05:52:20;-0.10;3.30
15286;DHT22;7744;52.172;10.668;2023-02-28T05:54:46;-0.10;1.00
15286;DHT22;7744;52.172;10.668;2023-02-28T05:57:12;-0.10;1.00
15286;DHT22;7744;52.172;10.668;2023-02-28T05:59:37;-0.10;2.60
15286;DHT22;7744;52.172;10.668;2023-02-28T06:02:06;-0.10;2.30
15286;DHT22;7744;52.172;10.668;2023-02-28T06:04:33;-0.10;1.00
15286;DHT22;7744;52.172;10.668;2023-02-28T06:06:59;-0.10;1.00
15286;DHT22;7744;52.172;10.668;2023-02-28T06:09:25;-0.20;1.00
15286;DHT22;7744;52.172;10.668;2023-02-28T06:11:50;-0.20;1.00
15286;DHT22;7744;52.172;10.668;2023-02-28T06:14:18;-0.20;2.70
15286;DHT22;7744;52.172;10.668;2023-02-28T06:16:44;-0.10;1.00
15286;DHT22;7744;52.172;10.668;2023-02-28T06:19:10;-0.10;1.00
15286;DHT22;7744;52.172;10.668;2023-02-28T06:21:36;-0.10;1.00
15286;DHT22;7744;52.172;10.668;2023-02-28T06:24:02;0.00;1.00
15286;DHT22;7744;52.172;10.668;2023-02-28T06:26:28;0.00;13.90
15286;DHT22;7744;52.172;10.668;2023-02-28T06:28:54;0.00;1.00
15286;DHT22;7744;52.172;10.668;2023-02-28T06:31:20;0.00;3.00
15286;DHT22;7744;52.172;10.668;2023-02-28T06:33:47;0.00;1.00
15286;DHT22;7744;52.172;10.668;2023-02-28T06:36:14;0.00;1.00
15286;DHT22;7744;52.172;10.668;2023-02-28T06:38:40;0.10;1.00
15286;DHT22;7744;52.172;10.668;2023-02-28T06:41:06;0.20;1.00
15286;DHT22;7744;52.172;10.668;2023-02-28T06:43:36;0.30;1.00
15286;DHT22;7744;52.172;10.668;2023-02-28T06:46:05;0.40;1.00
15286;DHT22;7744;52.172;10.668;2023-02-28T06:48:31;0.40;1.00
15286;DHT22;7744;52.172;10.668;2023-02-28T06:51:23;0.40;1.00
15286;DHT22;7744;52.172;10.668;2023-02-28T06:53:50;0.50;1.00
15286;DHT22;7744;52.172;10.668;2023-02-28T06:56:17;0.40;1.00
15286;DHT22;7744;52.172;10.668;2023-02-28T06:58:49;1.50;1.00
15286;DHT22;7744;52.172;10.668;2023-02-28T07:01:15;0.30;1.00
15286;DHT22;7744;52.172;10.668;2023-02-28T07:03:41;0.20;1.00
15286;DHT22;7744;52.172;10.668;2023-02-28T07:06:07;0.30;1.00
15286;DHT22;7744;52.172;10.668;2023-02-28T07:08:33;0.20;1.00
15286;DHT22;7744;52.172;10.668;2023-02-28T07:10:59;0.30;1.00
15286;DHT22;7744;52.172;10.668;2023-02-28T07:13:25;0.30;1.00
15286;DHT22;7744;52.172;10.668;2023-02-28T07:15:55;0.30;1.00
15286;DHT22;7744;52.172;10.668;2023-02-28T07:18:22;0.30;1.00
15286;DHT22;7744;52.172;10.668;2023-02-28T07:20:47;0.40;1.00
15286;DHT22;7744;52.172;10.668;2023-02-28T07:23:13;0.40;1.00
15286;DHT22;7744;52.172;10.668;2023-02-28T07:25:38;0.40;1.00
15286;DHT22;7744;52.172;10.668;2023-02-28T07:28:04;0.40;1.00
15286;DHT22;7744;52.172;10.668;2023-02-28T07:30:30;0.40;1.00
15286;DHT22;7744;52.172;10.668;2023-02-28T07:32:55;0.30;1.00
15286;DHT22;7744;52.172;10.668;2023-02-28T07:35:22;0.30;1.00
15286;DHT22;7744;52.172;10.668;2023-02-28T07:37:47;0.40;1.00
15286;DHT22;7744;52.172;10.668;2023-02-28T07:40:13;0.50;1.00
15286;DHT22;7744;52.172;10.668;2023-02-28T07:42:40;0.50;1.00
15286;DHT22;7744;52.172;10.668;2023-02-28T07:45:07;0.60;1.00
15286;DHT22;7744;52.172;10.668;2023-02-28T07:47:33;0.50;1.00
15286;DHT22;7744;52.172;10.668;2023-02-28T07:49:59;0.50;1.00
15286;DHT22;7744;52.172;10.668;2023-02-28T07:52:25;0.60;1.00
15286;DHT22;7744;52.172;10.668;2023-02-28T07:54:51;0.60;1.00
15286;DHT22;7744;52.172;10.668;2023-02-28T07:57:17;0.70;1.00
15286;DHT22;7744;52.172;10.668;2023-02-28T07:59:43;0.80;1.00
15286;DHT22;7744;52.172;10.668;2023-02-28T08:02:15;0.80;1.00
15286;DHT22;7744;52.172;10.668;2023-02-28T08:04:41;0.90;1.00
15286;DHT22;7744;52.172;10.668;2023-02-28T08:07:07;0.90;1.00
15286;DHT22;7744;52.172;10.668;2023-02-28T08:09:33;0.90;1.00
15286;DHT22;7744;52.172;10.668;2023-02-28T08:11:59;0.90;1.00
15286;DHT22;7744;52.172;10.668;2023-02-28T08:14:25;0.90;1.00
15286;DHT22;7744;52.172;10.668;2023-02-28T08:16:50;0.90;1.00
15286;DHT22;7744;52.172;10.668;2023-02-28T08:19:16;0.90;1.00
15286;DHT22;7744;52.172;10.668;2023-02-28T08:21:41;1.00;1.00
15286;DHT22;7744;52.172;10.668;2023-02-28T08:24:07;1.10;1.00
15286;DHT22;7744;52.172;10.668;2023-02-28T08:26:33;1.10;1.00
15286;DHT22;7744;52.172;10.668;2023-02-28T08:28:58;1.20;1.00
15286;DHT22;7744;52.172;10.668;2023-02-28T08:31:24;1.30;1.00
15286;DHT22;7744;52.172;10.668;2023-02-28T08:33:49;1.30;1.00
15286;DHT22;7744;52.172;10.668;2023-02-28T08:36:18;1.50;1.00
15286;DHT22;7744;52.172;10.668;2023-02-28T08:38:44;1.60;1.00
15286;DHT22;7744;52.172;10.668;2023-02-28T08:41:12;1.70;1.00
15286;DHT22;7744;52.172;10.668;2023-02-28T08:43:38;1.70;1.00
15286;DHT22;7744;52.172;10.668;2023-02-28T08:46:05;1.70;1.00
15286;DHT22;7744;52.172;10.668;2023-02-28T08:48:32;1.80;1.00
15286;DHT22;7744;52.172;10.668;2023-02-28T08:51:04;1.80;1.00
15286;DHT22;7744;52.172;10.668;2023-02-28T08:53:31;1.90;1.00
15286;DHT22;7744;52.172;10.668;2023-02-28T08:56:04;1.90;1.00
15286;DHT22;7744;52.172;10.668;2023-02-28T08:58:31;1.90;1.00
15286;DHT22;7744;52.172;10.668;2023-02-28T09:00:56;2.00;1.00
15286;DHT22;7744;52.172;10.668;2023-02-28T09:03:23;2.00;1.00
15286;DHT22;7744;52.172;10.668;2023-02-28T09:05:59;1.90;1.00
15286;DHT22;7744;52.172;10.668;2023-02-28T09:08:27;2.10;1.00
15286;DHT22;7744;52.172;10.668;2023-02-28T09:10:53;2.20;1.00
15286;DHT22;7744;52.172;10.668;2023-02-28T09:13:20;2.20;1.00
15286;DHT22;7744;52.172;10.668;2023-02-28T09:15:46;2.30;1.00
15286;DHT22;7744;52.172;10.668;2023-02-28T09:18:12;2.30;1.00
15286;DHT22;7744;52.172;10.668;2023-02-28T09:20:39;2.30;1.00
15286;DHT22;7744;52.172;10.668;2023-02-28T09:23:06;2.30;1.00
15286;DHT22;7744;52.172;10.668;2023-02-28T09:25:32;2.30;1.00
15286;DHT22;7744;52.172;10.668;2023-02-28T09:27:57;2.40;1.00
15286;DHT22;7744;52.172;10.668;2023-02-28T09:30:23;2.50;1.00
15286;DHT22;7744;52.172;10.668;2023-02-28T09:32:49;2.50;1.00
15286;DHT22;7744;52.172;10.668;2023-02-28T09:35:18;2.50;1.00
15286;DHT22;7744;52.172;10.668;2023-02-28T09:37:44;2.70;1.00
15286;DHT22;7744;52.172;10.668;2023-02-28T09:40:10;2.80;1.00
15286;DHT22;7744;52.172;10.668;2023-02-28T09:42:37;2.80;1.00
15286;DHT22;7744;52.172;10.668;2023-02-28T09:45:11;2.80;1.00
15286;DHT22;7744;52.172;10.668;2023-02-28T09:47:44;2.90;1.00
15286;DHT22;7744;52.172;10.668;2023-02-28T09:50:40;2.90;1.00
15286;DHT22;7744;52.172;10.668;2023-02-28T09:53:29;3.00;1.00
15286;DHT22;7744;52.172;10.668;2023-02-28T09:56:03;3.10;52.30
15286;DHT22;7744;52.172;10.668;2023-02-28T09:58:59;3.00;1.00
15286;DHT22;7744;52.172;10.668;2023-02-28T10:01:35;3.20;1.00
15286;DHT22;7744;52.172;10.668;2023-02-28T10:04:08;3.30;40.90
15286;DHT22;7744;52.172;10.668;2023-02-28T10:06:49;3.10;90.60
15286;DHT22;7744;52.172;10.668;2023-02-28T10:09:25;3.20;1.00
15286;DHT22;7744;52.172;10.668;2023-02-28T10:11:54;3.20;1.00
15286;DHT22;7744;52.172;10.668;2023-02-28T10:14:23;3.40;1.00
15286;DHT22;7744;52.172;10.668;2023-02-28T10:17:07;4.00;11.40
15286;DHT22;7744;52.172;10.668;2023-02-28T10:19:51;3.20;1.00
15286;DHT22;7744;52.172;10.668;2023-02-28T10:22:29;3.40;6.50
15286;DHT22;7744;52.172;10.668;2023-02-28T10:24:57;3.90;1.00
15286;DHT22;7744;52.172;10.668;2023-02-28T10:27:34;3.60;91.20
15286;DHT22;7744;52.172;10.668;2023-02-28T10:30:01;3.60;99.90
15286;DHT22;7744;52.172;10.668;2023-02-28T10:32:31;3.40;1.00
15286;DHT22;7744;52.172;10.668;2023-02-28T10:37:27;3.60;1.00
15286;DHT22;7744;52.172;10.668;2023-02-28T10:39:52;3.80;1.00
15286;DHT22;7744;52.172;10.668;2023-02-28T10:42:26;3.70;1.00
15286;DHT22;7744;52.172;10.668;2023-02-28T10:45:14;3.90;1.00
15286;DHT22;7744;52.172;10.668;2023-02-28T10:48:05;3.60;1.00
15286;DHT22;7744;52.172;10.668;2023-02-28T10:53:25;4.00;1.00
15286;DHT22;7744;52.172;10.668;2023-02-28T10:56:20;4.30;65.60
15286;DHT22;7744;52.172;10.668;2023-02-28T11:01:38;4.30;1.00
15286;DHT22;7744;52.172;10.668;2023-02-28T11:04:35;4.30;1.00
15286;DHT22;7744;52.172;10.668;2023-02-28T11:07:19;4.30;13.10
15286;DHT22;7744;52.172;10.668;2023-02-28T11:09:49;4.20;1.00
15286;DHT22;7744;52.172;10.668;2023-02-28T11:12:54;4.00;1.00
15286;DHT22;7744;52.172;10.668;2023-02-28T11:15:23;4.10;1.00
15286;DHT22;7744;52.172;10.668;2023-02-28T11:20:23;4.00;1.00
15286;DHT22;7744;52.172;10.668;2023-02-28T11:22:51;4.20;1.00
15286;DHT22;7744;52.172;10.668;2023-02-28T11:25:24;4.10;12.20
15286;DHT22;7744;52.172;10.668;2023-02-28T11:27:53;4.10;1.00
15286;DHT22;7744;52.172;10.668;2023-02-28T11:30:38;4.20;1.00
15286;DHT22;7744;52.172;10.668;2023-02-28T11:33:29;4.30;1.00
15286;DHT22;7744;52.172;10.668;2023-02-28T11:36:28;4.30;1.00
15286;DHT22;7744;52.172;10.668;2023-02-28T11:38:59;4.30;1.00
15286;DHT22;7744;52.172;10.668;2023-02-28T11:46:59;4.30;1.00
15286;DHT22;7744;52.172;10.668;2023-02-28T11:49:57;4.30;1.00
15286;DHT22;7744;52.172;10.668;2023-02-28T12:02:49;4.50;1.00
15286;DHT22;7744;52.172;10.668;2023-02-28T12:05:44;4.40;1.00
15286;DHT22;7744;52.172;10.668;2023-02-28T12:11:25;4.50;1.00
15286;DHT22;7744;52.172;10.668;2023-02-28T12:27:45;4.70;1.00
15286;DHT22;7744;52.172;10.668;2023-02-28T12:30:27;4.80;1.00
15286;DHT22;7744;52.172;10.668;2023-02-28T12:32:58;4.80;1.00
15286;DHT22;7744;52.172;10.668;2023-02-28T12:35:40;4.80;1.00
15286;DHT22;7744;52.172;10.668;2023-02-28T12:38:12;4.60;1.00
15286;DHT22;7744;52.172;10.668;2023-02-28T12:40:44;4.80;1.00
15286;DHT22;7744;52.172;10.668;2023-02-28T12:43:13;5.60;1.00
15286;DHT22;7744;52.172;10.668;2023-02-28T12:48:19;4.70;1.00
15286;DHT22;7744;52.172;10.668;2023-02-28T12:50:48;4.80;1.00
15286;DHT22;7744;52.172;10.668;2023-02-28T12:53:42;4.80;1.00
15286;DHT22;7744;52.172;10.668;2023-02-28T12:56:17;4.90;1.00
15286;DHT22;7744;52.172;10.668;2023-02-28T13:01:36;4.80;1.00
15286;DHT22;7744;52.172;10.668;2023-02-28T13:07:13;4.80;1.00
15286;DHT22;7744;52.172;10.668;2023-02-28T13:09:55;4.80;1.00
15286;DHT22;7744;52.172;10.668;2023-02-28T13:12:22;4.60;1.00
15286;DHT22;7744;52.172;10.668;2023-02-28T13:14:49;4.60;1.00
15286;DHT22;7744;52.172;10.668;2023-02-28T13:17:20;4.60;1.00
15286;DHT22;7744;52.172;10.668;2023-02-28T13:19:57;4.70;1.00
15286;DHT22;7744;52.172;10.668;2023-02-28T13:22:40;4.80;1.00
15286;DHT22;7744;52.172;10.668;2023-02-28T13:27:54;4.90;1.00
15286;DHT22;7744;52.172;10.668;2023-02-28T13:33:32;4.90;1.00
15286;DHT22;7744;52.172;10.668;2023-02-28T13:44:19;4.80;1.00
15286;DHT22;7744;52.172;10.668;2023-02-28T13:52:20;5.00;1.00
15286;DHT22;7744;52.172;10.668;2023-02-28T14:00:30;5.00;1.00
15286;DHT22;7744;52.172;10.668;2023-02-28T14:05:42;4.90;1.00
15286;DHT22;7744;52.172;10.668;2023-02-28T14:08:15;4.80;1.00
15286;DHT22;7744;52.172;10.668;2023-02-28T14:10:45;4.90;1.00
15286;DHT22;7744;52.172;10.668;2023-02-28T14:13:43;4.90;1.00
15286;DHT22;7744;52.172;10.668;2023-02-28T14:16:12;5.00;1.00
15286;DHT22;7744;52.172;10.668;2023-02-28T14:18:49;4.90;1.00
15286;DHT22;7744;52.172;10.668;2023-02-28T14:21:28;4.90;1.00
15286;DHT22;7744;52.172;10.668;2023-02-28T14:24:22;5.00;1.00
15286;DHT22;7744;52.172;10.668;2023-02-28T14:32:43;5.00;1.00
15286;DHT22;7744;52.172;10.668;2023-02-28T14:37:53;4.90;1.00
15286;DHT22;7744;52.172;10.668;2023-02-28T14:40:33;4.70;1.00
15286;DHT22;7744;52.172;10.668;2023-02-28T14:43:03;4.70;1.00
15286;DHT22;7744;52.172;10.668;2023-02-28T14:45:31;4.70;1.00
15286;DHT22;7744;52.172;10.668;2023-02-28T14:47:58;4.70;1.00
15286;DHT22;7744;52.172;10.668;2023-02-28T14:50:34;4.70;1.00
15286;DHT22;7744;52.172;10.668;2023-02-28T14:53:00;4.70;1.00
15286;DHT22;7744;52.172;10.668;2023-02-28T14:55:33;4.80;1.00
15286;DHT22;7744;52.172;10.668;2023-02-28T14:58:05;4.70;1.00
15286;DHT22;7744;52.172;10.668;2023-02-28T15:00:34;4.70;1.00
15286;DHT22;7744;52.172;10.668;2023-02-28T15:03:19;4.60;1.00
15286;DHT22;7744;52.172;10.668;2023-02-28T15:05:54;4.60;1.00
15286;DHT22;7744;52.172;10.668;2023-02-28T15:08:19;4.60;1.00
15286;DHT22;7744;52.172;10.668;2023-02-28T15:10:55;4.70;1.00
15286;DHT22;7744;52.172;10.668;2023-02-28T15:13:22;4.60;1.00
15286;DHT22;7744;52.172;10.668;2023-02-28T15:15:57;4.50;1.00
15286;DHT22;7744;52.172;10.668;2023-02-28T15:18:44;4.50;1.00
15286;DHT22;7744;52.172;10.668;2023-02-28T15:21:18;4.50;1.00
15286;DHT22;7744;52.172;10.668;2023-02-28T15:23:49;4.50;1.00
15286;DHT22;7744;52.172;10.668;2023-02-28T15:26:19;4.50;1.00
15286;DHT22;7744;52.172;10.668;2023-02-28T15:28:46;4.40;1.00
15286;DHT22;7744;52.172;10.668;2023-02-28T15:31:27;4.40;1.00
15286;DHT22;7744;52.172;10.668;2023-02-28T15:33:55;4.30;1.00
15286;DHT22;7744;52.172;10.668;2023-02-28T15:36:25;4.30;1.00
15286;DHT22;7744;52.172;10.668;2023-02-28T15:38:54;4.20;1.00
15286;DHT22;7744;52.172;10.668;2023-02-28T15:41:38;4.20;1.00
15286;DHT22;7744;52.172;10.668;2023-02-28T15:44:22;4.10;1.00
15286;DHT22;7744;52.172;10.668;2023-02-28T15:50:01;3.90;1.00
15286;DHT22;7744;52.172;10.668;2023-02-28T15:52:38;3.90;1.00
15286;DHT22;7744;52.172;10.668;2023-02-28T15:55:23;3.80;1.00
15286;DHT22;7744;52.172;10.668;2023-02-28T15:57:54;3.70;1.00
15286;DHT22;7744;52.172;10.668;2023-02-28T16:00:22;3.70;1.00
15286;DHT22;7744;52.172;10.668;2023-02-28T16:02:49;3.60;1.00
15286;DHT22;7744;52.172;10.668;2023-02-28T16:05:25;3.50;1.00
15286;DHT22;7744;52.172;10.668;2023-02-28T16:07:57;3.40;1.00
15286;DHT22;7744;52.172;10.668;2023-02-28T16:10:24;3.30;1.00
15286;DHT22;7744;52.172;10.668;2023-02-28T16:12:53;3.20;1.00
15286;DHT22;7744;52.172;10.668;2023-02-28T16:15:27;3.10;1.00
15286;DHT22;7744;52.172;10.668;2023-02-28T16:17:54;3.00;1.00
15286;DHT22;7744;52.172;10.668;2023-02-28T16:20:28;2.90;1.00
15286;DHT22;7744;52.172;10.668;2023-02-28T16:22:55;2.80;1.00
15286;DHT22;7744;52.172;10.668;2023-02-28T16:25:38;2.70;1.00
15286;DHT22;7744;52.172;10.668;2023-02-28T16:28:05;2.60;1.00
15286;DHT22;7744;52.172;10.668;2023-02-28T16:30:33;2.40;1.00
15286;DHT22;7744;52.172;10.668;2023-02-28T16:32:59;2.40;1.00
15286;DHT22;7744;52.172;10.668;2023-02-28T16:35:25;2.30;1.00
15286;DHT22;7744;52.172;10.668;2023-02-28T16:37:53;2.20;1.00
15286;DHT22;7744;52.172;10.668;2023-02-28T16:40:24;2.10;1.00
15286;DHT22;7744;52.172;10.668;2023-02-28T16:42:53;2.00;1.00
15286;DHT22;7744;52.172;10.668;2023-02-28T16:45:22;2.00;1.00
15286;DHT22;7744;52.172;10.668;2023-02-28T16:47:48;1.90;1.00
15286;DHT22;7744;52.172;10.668;2023-02-28T16:50:19;1.90;1.00
15286;DHT22;7744;52.172;10.668;2023-02-28T16:52:45;1.80;1.00
15286;DHT22;7744;52.172;10.668;2023-02-28T16:55:12;1.70;1.00
15286;DHT22;7744;52.172;10.668;2023-02-28T16:57:38;1.80;1.00
15286;DHT22;7744;52.172;10.668;2023-02-28T17:00:06;1.60;1.00
15286;DHT22;7744;52.172;10.668;2023-02-28T17:02:33;1.50;1.00
15286;DHT22;7744;52.172;10.668;2023-02-28T17:04:59;1.40;1.00
15286;DHT22;7744;52.172;10.668;2023-02-28T17:07:25;1.40;1.00
15286;DHT22;7744;52.172;10.668;2023-02-28T17:09:50;1.30;1.00
15286;DHT22;7744;52.172;10.668;2023-02-28T17:12:16;1.30;1.00
15286;DHT22;7744;52.172;10.668;2023-02-28T17:14:41;1.20;1.00
15286;DHT22;7744;52.172;10.668;2023-02-28T17:17:09;1.20;1.00
15286;DHT22;7744;52.172;10.668;2023-02-28T17:19:35;1.20;1.00
15286;DHT22;7744;52.172;10.668;2023-02-28T17:22:01;1.10;1.00
15286;DHT22;7744;52.172;10.668;2023-02-28T17:24:28;1.00;1.00
15286;DHT22;7744;52.172;10.668;2023-02-28T17:26:53;1.00;1.00
15286;DHT22;7744;52.172;10.668;2023-02-28T17:29:21;0.90;1.00
15286;DHT22;7744;52.172;10.668;2023-02-28T17:31:47;0.90;1.00
15286;DHT22;7744;52.172;10.668;2023-02-28T17:34:13;0.80;1.00
15286;DHT22;7744;52.172;10.668;2023-02-28T17:36:49;0.80;1.00
15286;DHT22;7744;52.172;10.668;2023-02-28T17:39:16;0.80;1.00
15286;DHT22;7744;52.172;10.668;2023-02-28T17:41:52;0.80;1.00
15286;DHT22;7744;52.172;10.668;2023-02-28T17:44:18;0.70;1.00
15286;DHT22;7744;52.172;10.668;2023-02-28T17:46:45;0.70;1.00
15286;DHT22;7744;52.172;10.668;2023-02-28T17:49:12;0.80;1.00
15286;DHT22;7744;52.172;10.668;2023-02-28T17:51:38;0.60;1.00
15286;DHT22;7744;52.172;10.668;2023-02-28T17:54:04;0.60;1.00
15286;DHT22;7744;52.172;10.668;2023-02-28T17:56:30;0.50;1.00
15286;DHT22;7744;52.172;10.668;2023-02-28T17:58:56;0.50;1.00
15286;DHT22;7744;52.172;10.668;2023-02-28T18:01:23;0.40;1.00
15286;DHT22;7744;52.172;10.668;2023-02-28T18:03:51;0.40;1.00
15286;DHT22;7744;52.172;10.668;2023-02-28T18:06:33;0.30;1.00
15286;DHT22;7744;52.172;10.668;2023-02-28T18:09:00;0.30;1.00